sensor_id;sensor_type;location;lat;lon;timestamp;P1;durP1;ratioP1;P2;durP2;ratioP2
13197;SDS011;6664;52.514;13.440;2024-03-08T00:00:49;18.03;;;9.40;;
13197;SDS011;6664;52.514;13.440;2024-03-08T00:03:37;14.47;;;9.47;;
13197;SDS011;6664;52.514;13.440;2024-03-08T00:06:26;18.90;;;8.90;;
13197;SDS011;6664;52.514;13.440;2024-03-08T00:09:13;14.70;;;8.40;;
13197;SDS011;6664;52.514;13.440;2024-03-08T00:12:00;13.10;;;8.40;;
13197;SDS011;6664;52.514;13.440;2024-03-08T00:14:48;21.93;;;9.40;;
13197;SDS011;6664;52.514;13.440;2024-03-08T00:17:34;17.47;;;9.27;;
13197;SDS011;6664;52.514;13.440;2024-03-08T00:20:20;15.53;;;8.40;;
13197;SDS011;6664;52.514;13.440;2024-03-08T00:23:06;18.80;;;8.97;;
13197;SDS011;6664;52.514;13.440;2024-03-08T00:25:51;15.40;;;9.27;;
13197;SDS011;6664;52.514;13.440;2024-03-08T00:28:40;14.87;;;9.50;;
13197;SDS011;6664;52.514;13.440;2024-03-08T00:31:26;15.93;;;9.20;;
13197;SDS011;6664;52.514;13.440;2024-03-08T00:34:13;14.60;;;8.27;;
13197;SDS011;6664;52.514;13.440;2024-03-08T00:36:58;19.27;;;9.97;;
13197;SDS011;6664;52.514;13.440;2024-03-08T00:39:44;17.90;;;8.80;;
13197;SDS011;6664;52.514;13.440;2024-03-08T00:42:30;15.20;;;8.27;;
13197;SDS011;6664;52.514;13.440;2024-03-08T00:45:16;16.97;;;10.20;;
13197;SDS011;6664;52.514;13.440;2024-03-08T00:48:02;15.90;;;7.97;;
13197;SDS011;6664;52.514;13.440;2024-03-08T00:50:48;15.50;;;8.73;;
13197;SDS011;6664;52.514;13.440;2024-03-08T00:53:34;17.90;;;8.33;;
13197;SDS011;6664;52.514;13.440;2024-03-08T00:56:22;21.70;;;9.67;;
13197;SDS011;6664;52.514;13.440;2024-03-08T00:59:09;15.80;;;8.20;;
13197;SDS011;6664;52.514;13.440;2024-03-08T01:01:58;14.30;;;7.83;;
13197;SDS011;6664;52.514;13.440;2024-03-08T01:04:45;15.27;;;8.67;;
13197;SDS011;6664;52.514;13.440;2024-03-08T01:07:32;15.97;;;8.37;;
13197;SDS011;6664;52.514;13.440;2024-03-08T01:10:18;14.13;;;8.40;;
13197;SDS011;6664;52.514;13.440;2024-03-08T01:13:03;24.93;;;9.87;;
13197;SDS011;6664;52.514;13.440;2024-03-08T01:15:49;20.17;;;8.17;;
13197;SDS011;6664;52.514;13.440;2024-03-08T01:18:35;12.43;;;8.50;;
13197;SDS011;6664;52.514;13.440;2024-03-08T01:21:21;12.93;;;8.47;;
13197;SDS011;6664;52.514;13.440;2024-03-08T01:24:07;16.13;;;9.27;;
13197;SDS011;6664;52.514;13.440;2024-03-08T01:26:52;17.90;;;8.50;;
13197;SDS011;6664;52.514;13.440;2024-03-08T01:29:38;14.80;;;8.43;;
13197;SDS011;6664;52.514;13.440;2024-03-08T01:32:24;17.10;;;8.90;;
13197;SDS011;6664;52.514;13.440;2024-03-08T01:35:12;15.80;;;10.13;;
13197;SDS011;6664;52.514;13.440;2024-03-08T01:37:58;22.07;;;10.10;;
13197;SDS011;6664;52.514;13.440;2024-03-08T01:40:46;12.60;;;8.97;;
13197;SDS011;6664;52.514;13.440;2024-03-08T01:43:34;15.60;;;9.30;;
13197;SDS011;6664;52.514;13.440;2024-03-08T01:46:19;12.50;;;7.33;;
13197;SDS011;6664;52.514;13.440;2024-03-08T01:49:07;20.17;;;9.00;;
13197;SDS011;6664;52.514;13.440;2024-03-08T01:51:52;12.20;;;7.73;;
13197;SDS011;6664;52.514;13.440;2024-03-08T01:54:41;14.77;;;9.13;;
13197;SDS011;6664;52.514;13.440;2024-03-08T01:57:30;15.60;;;9.37;;
13197;SDS011;6664;52.514;13.440;2024-03-08T02:00:18;17.43;;;9.47;;
13197;SDS011;6664;52.514;13.440;2024-03-08T02:03:05;23.37;;;10.90;;
13197;SDS011;6664;52.514;13.440;2024-03-08T02:05:51;16.00;;;9.30;;
13197;SDS011;6664;52.514;13.440;2024-03-08T02:08:37;19.00;;;9.87;;
13197;SDS011;6664;52.514;13.440;2024-03-08T02:11:24;15.97;;;8.47;;
13197;SDS011;6664;52.514;13.440;2024-03-08T02:14:10;16.77;;;9.43;;
13197;SDS011;6664;52.514;13.440;2024-03-08T02:16:59;14.47;;;8.63;;
13197;SDS011;6664;52.514;13.440;2024-03-08T02:19:45;15.27;;;8.37;;
13197;SDS011;6664;52.514;13.440;2024-03-08T02:22:34;17.10;;;9.80;;
13197;SDS011;6664;52.514;13.440;2024-03-08T02:25:19;14.37;;;8.83;;
13197;SDS011;6664;52.514;13.440;2024-03-08T02:28:10;21.40;;;10.17;;
13197;SDS011;6664;52.514;13.440;2024-03-08T02:30:57;16.50;;;8.27;;
13197;SDS011;6664;52.514;13.440;2024-03-08T02:33:42;26.93;;;9.73;;
13197;SDS011;6664;52.514;13.440;2024-03-08T02:36:32;16.30;;;9.73;;
13197;SDS011;6664;52.514;13.440;2024-03-08T02:39:20;16.63;;;9.90;;
13197;SDS011;6664;52.514;13.440;2024-03-08T02:42:05;13.60;;;8.23;;
13197;SDS011;6664;52.514;13.440;2024-03-08T02:44:52;12.57;;;8.30;;
13197;SDS011;6664;52.514;13.440;2024-03-08T02:47:38;16.47;;;8.87;;
13197;SDS011;6664;52.514;13.440;2024-03-08T02:50:26;16.00;;;9.97;;
13197;SDS011;6664;52.514;13.440;2024-03-08T02:53:12;24.00;;;9.80;;
13197;SDS011;6664;52.514;13.440;2024-03-08T02:55:58;13.90;;;8.77;;
13197;SDS011;6664;52.514;13.440;2024-03-08T02:58:45;17.60;;;9.60;;
13197;SDS011;6664;52.514;13.440;2024-03-08T03:01:33;14.77;;;9.00;;
13197;SDS011;6664;52.514;13.440;2024-03-08T03:04:20;16.33;;;9.40;;
13197;SDS011;6664;52.514;13.440;2024-03-08T03:07:05;21.53;;;8.87;;
13197;SDS011;6664;52.514;13.440;2024-03-08T03:09:50;16.67;;;8.47;;
13197;SDS011;6664;52.514;13.440;2024-03-08T03:12:36;16.13;;;9.17;;
13197;SDS011;6664;52.514;13.440;2024-03-08T03:15:21;19.40;;;10.13;;
13197;SDS011;6664;52.514;13.440;2024-03-08T03:18:12;15.03;;;8.93;;
13197;SDS011;6664;52.514;13.440;2024-03-08T03:21:00;12.77;;;9.00;;
13197;SDS011;6664;52.514;13.440;2024-03-08T03:23:52;16.70;;;10.17;;
13197;SDS011;6664;52.514;13.440;2024-03-08T03:26:39;15.13;;;8.63;;
13197;SDS011;6664;52.514;13.440;2024-03-08T03:29:25;16.17;;;8.73;;
13197;SDS011;6664;52.514;13.440;2024-03-08T03:32:11;17.17;;;9.87;;
13197;SDS011;6664;52.514;13.440;2024-03-08T03:34:58;16.70;;;9.33;;
13197;SDS011;6664;52.514;13.440;2024-03-08T03:37:43;18.73;;;8.97;;
13197;SDS011;6664;52.514;13.440;2024-03-08T03:40:46;17.33;;;10.03;;
13197;SDS011;6664;52.514;13.440;2024-03-08T03:43:33;21.67;;;10.63;;
13197;SDS011;6664;52.514;13.440;2024-03-08T03:46:19;19.03;;;10.00;;
13197;SDS011;6664;52.514;13.440;2024-03-08T03:49:04;22.80;;;10.23;;
13197;SDS011;6664;52.514;13.440;2024-03-08T03:51:50;17.27;;;9.97;;
13197;SDS011;6664;52.514;13.440;2024-03-08T03:54:35;15.93;;;9.23;;
13197;SDS011;6664;52.514;13.440;2024-03-08T03:57:21;14.93;;;9.30;;
13197;SDS011;6664;52.514;13.440;2024-03-08T04:00:07;21.07;;;11.50;;
13197;SDS011;6664;52.514;13.440;2024-03-08T04:02:55;14.73;;;10.07;;
13197;SDS011;6664;52.514;13.440;2024-03-08T04:05:46;20.17;;;9.60;;
13197;SDS011;6664;52.514;13.440;2024-03-08T04:08:36;19.87;;;10.90;;
13197;SDS011;6664;52.514;13.440;2024-03-08T04:11:24;20.33;;;10.80;;
13197;SDS011;6664;52.514;13.440;2024-03-08T04:14:09;16.30;;;9.10;;
13197;SDS011;6664;52.514;13.440;2024-03-08T04:16:55;16.60;;;10.40;;
13197;SDS011;6664;52.514;13.440;2024-03-08T04:19:42;20.70;;;10.53;;
13197;SDS011;6664;52.514;13.440;2024-03-08T04:22:27;18.13;;;9.00;;
13197;SDS011;6664;52.514;13.440;2024-03-08T04:25:13;21.90;;;11.20;;
13197;SDS011;6664;52.514;13.440;2024-03-08T04:27:58;15.63;;;10.10;;
13197;SDS011;6664;52.514;13.440;2024-03-08T04:30:44;19.13;;;10.03;;
13197;SDS011;6664;52.514;13.440;2024-03-08T04:33:32;23.93;;;9.60;;
13197;SDS011;6664;52.514;13.440;2024-03-08T04:36:20;21.47;;;10.63;;
13197;SDS011;6664;52.514;13.440;2024-03-08T04:39:06;23.83;;;11.70;;
13197;SDS011;6664;52.514;13.440;2024-03-08T04:41:58;17.77;;;11.37;;
13197;SDS011;6664;52.514;13.440;2024-03-08T04:44:50;17.97;;;10.70;;
13197;SDS011;6664;52.514;13.440;2024-03-08T04:47:39;19.73;;;11.50;;
13197;SDS011;6664;52.514;13.440;2024-03-08T04:50:25;17.30;;;10.30;;
13197;SDS011;6664;52.514;13.440;2024-03-08T04:53:13;20.47;;;11.00;;
13197;SDS011;6664;52.514;13.440;2024-03-08T04:55:59;19.93;;;10.93;;
13197;SDS011;6664;52.514;13.440;2024-03-08T04:58:44;21.47;;;11.33;;
13197;SDS011;6664;52.514;13.440;2024-03-08T05:01:33;17.50;;;10.27;;
13197;SDS011;6664;52.514;13.440;2024-03-08T05:04:18;15.83;;;9.40;;
13197;SDS011;6664;52.514;13.440;2024-03-08T05:07:04;15.70;;;9.33;;
13197;SDS011;6664;52.514;13.440;2024-03-08T05:09:52;21.03;;;11.80;;
13197;SDS011;6664;52.514;13.440;2024-03-08T05:12:38;20.03;;;11.13;;
13197;SDS011;6664;52.514;13.440;2024-03-08T05:15:24;19.60;;;9.20;;
13197;SDS011;6664;52.514;13.440;2024-03-08T05:18:09;21.93;;;10.30;;
13197;SDS011;6664;52.514;13.440;2024-03-08T05:20:56;23.60;;;10.57;;
13197;SDS011;6664;52.514;13.440;2024-03-08T05:23:41;22.53;;;11.40;;
13197;SDS011;6664;52.514;13.440;2024-03-08T05:26:27;17.90;;;10.30;;
13197;SDS011;6664;52.514;13.440;2024-03-08T05:29:13;23.40;;;12.50;;
13197;SDS011;6664;52.514;13.440;2024-03-08T05:32:03;20.33;;;11.50;;
13197;SDS011;6664;52.514;13.440;2024-03-08T05:34:52;27.20;;;12.30;;
13197;SDS011;6664;52.514;13.440;2024-03-08T05:37:39;19.67;;;11.37;;
13197;SDS011;6664;52.514;13.440;2024-03-08T05:40:26;22.20;;;11.90;;
13197;SDS011;6664;52.514;13.440;2024-03-08T05:43:11;19.80;;;11.60;;
13197;SDS011;6664;52.514;13.440;2024-03-08T05:46:02;24.53;;;12.37;;
13197;SDS011;6664;52.514;13.440;2024-03-08T05:48:49;18.90;;;11.00;;
13197;SDS011;6664;52.514;13.440;2024-03-08T05:51:38;22.97;;;13.07;;
13197;SDS011;6664;52.514;13.440;2024-03-08T05:54:24;22.80;;;11.73;;
13197;SDS011;6664;52.514;13.440;2024-03-08T05:57:11;21.53;;;11.70;;
13197;SDS011;6664;52.514;13.440;2024-03-08T05:59:56;23.97;;;12.40;;
13197;SDS011;6664;52.514;13.440;2024-03-08T06:02:42;21.17;;;11.20;;
13197;SDS011;6664;52.514;13.440;2024-03-08T06:05:27;22.03;;;10.63;;
13197;SDS011;6664;52.514;13.440;2024-03-08T06:08:13;22.10;;;11.43;;
13197;SDS011;6664;52.514;13.440;2024-03-08T06:10:59;22.93;;;12.20;;
13197;SDS011;6664;52.514;13.440;2024-03-08T06:13:47;28.90;;;12.33;;
13197;SDS011;6664;52.514;13.440;2024-03-08T06:16:33;20.53;;;12.17;;
13197;SDS011;6664;52.514;13.440;2024-03-08T06:19:21;26.90;;;13.43;;
13197;SDS011;6664;52.514;13.440;2024-03-08T06:22:08;24.40;;;11.60;;
13197;SDS011;6664;52.514;13.440;2024-03-08T06:24:54;20.77;;;11.20;;
13197;SDS011;6664;52.514;13.440;2024-03-08T06:27:40;23.50;;;12.27;;
13197;SDS011;6664;52.514;13.440;2024-03-08T06:30:27;23.17;;;12.27;;
13197;SDS011;6664;52.514;13.440;2024-03-08T06:33:16;17.27;;;11.20;;
13197;SDS011;6664;52.514;13.440;2024-03-08T06:36:03;26.27;;;12.50;;
13197;SDS011;6664;52.514;13.440;2024-03-08T06:38:49;20.07;;;11.17;;
13197;SDS011;6664;52.514;13.440;2024-03-08T06:41:38;19.00;;;10.80;;
13197;SDS011;6664;52.514;13.440;2024-03-08T06:44:24;21.00;;;12.50;;
13197;SDS011;6664;52.514;13.440;2024-03-08T06:47:10;20.57;;;11.50;;
13197;SDS011;6664;52.514;13.440;2024-03-08T06:49:56;23.00;;;11.37;;
13197;SDS011;6664;52.514;13.440;2024-03-08T06:52:41;20.20;;;12.40;;
13197;SDS011;6664;52.514;13.440;2024-03-08T06:55:31;20.50;;;12.10;;
13197;SDS011;6664;52.514;13.440;2024-03-08T06:58:17;25.20;;;11.80;;
13197;SDS011;6664;52.514;13.440;2024-03-08T07:01:05;23.37;;;11.53;;
13197;SDS011;6664;52.514;13.440;2024-03-08T07:03:56;23.30;;;12.33;;
13197;SDS011;6664;52.514;13.440;2024-03-08T07:06:44;23.73;;;10.90;;
13197;SDS011;6664;52.514;13.440;2024-03-08T07:09:30;23.73;;;11.07;;
13197;SDS011;6664;52.514;13.440;2024-03-08T07:12:15;21.50;;;12.87;;
13197;SDS011;6664;52.514;13.440;2024-03-08T07:15:02;22.00;;;11.10;;
13197;SDS011;6664;52.514;13.440;2024-03-08T07:17:48;19.97;;;10.37;;
13197;SDS011;6664;52.514;13.440;2024-03-08T07:20:38;19.47;;;12.10;;
13197;SDS011;6664;52.514;13.440;2024-03-08T07:23:23;22.30;;;11.40;;
13197;SDS011;6664;52.514;13.440;2024-03-08T07:26:27;18.40;;;11.00;;
13197;SDS011;6664;52.514;13.440;2024-03-08T07:29:13;23.10;;;11.50;;
13197;SDS011;6664;52.514;13.440;2024-03-08T07:31:59;29.37;;;11.03;;
13197;SDS011;6664;52.514;13.440;2024-03-08T07:34:59;20.87;;;11.70;;
13197;SDS011;6664;52.514;13.440;2024-03-08T07:37:44;19.30;;;10.57;;
13197;SDS011;6664;52.514;13.440;2024-03-08T07:40:35;22.97;;;10.57;;
13197;SDS011;6664;52.514;13.440;2024-03-08T07:43:21;25.50;;;13.07;;
13197;SDS011;6664;52.514;13.440;2024-03-08T07:46:06;28.73;;;14.60;;
13197;SDS011;6664;52.514;13.440;2024-03-08T07:48:55;33.27;;;18.83;;
13197;SDS011;6664;52.514;13.440;2024-03-08T07:51:40;37.50;;;21.10;;
13197;SDS011;6664;52.514;13.440;2024-03-08T07:54:26;37.60;;;20.57;;
13197;SDS011;6664;52.514;13.440;2024-03-08T07:57:11;32.97;;;20.33;;
13197;SDS011;6664;52.514;13.440;2024-03-08T08:00:01;36.27;;;20.17;;
13197;SDS011;6664;52.514;13.440;2024-03-08T08:02:51;34.20;;;19.93;;
13197;SDS011;6664;52.514;13.440;2024-03-08T08:05:36;33.07;;;20.17;;
13197;SDS011;6664;52.514;13.440;2024-03-08T08:08:25;48.20;;;19.93;;
13197;SDS011;6664;52.514;13.440;2024-03-08T08:11:11;33.93;;;18.00;;
13197;SDS011;6664;52.514;13.440;2024-03-08T08:14:00;38.57;;;20.20;;
13197;SDS011;6664;52.514;13.440;2024-03-08T08:16:46;32.40;;;20.00;;
13197;SDS011;6664;52.514;13.440;2024-03-08T08:19:35;36.53;;;21.47;;
13197;SDS011;6664;52.514;13.440;2024-03-08T08:22:23;38.20;;;21.60;;
13197;SDS011;6664;52.514;13.440;2024-03-08T08:25:09;30.13;;;18.00;;
13197;SDS011;6664;52.514;13.440;2024-03-08T08:27:58;33.40;;;17.20;;
13197;SDS011;6664;52.514;13.440;2024-03-08T08:30:46;33.23;;;17.13;;
13197;SDS011;6664;52.514;13.440;2024-03-08T08:33:32;25.50;;;14.80;;
13197;SDS011;6664;52.514;13.440;2024-03-08T08:36:19;23.80;;;15.10;;
13197;SDS011;6664;52.514;13.440;2024-03-08T08:39:05;25.37;;;13.63;;
13197;SDS011;6664;52.514;13.440;2024-03-08T08:41:57;20.37;;;12.17;;
13197;SDS011;6664;52.514;13.440;2024-03-08T08:44:43;25.50;;;14.00;;
13197;SDS011;6664;52.514;13.440;2024-03-08T08:47:28;16.80;;;10.80;;
13197;SDS011;6664;52.514;13.440;2024-03-08T08:50:14;12.33;;;8.07;;
13197;SDS011;6664;52.514;13.440;2024-03-08T08:53:01;14.33;;;9.30;;
13197;SDS011;6664;52.514;13.440;2024-03-08T08:55:49;20.00;;;9.83;;
13197;SDS011;6664;52.514;13.440;2024-03-08T08:58:34;18.03;;;9.27;;
13197;SDS011;6664;52.514;13.440;2024-03-08T09:01:22;15.20;;;9.43;;
13197;SDS011;6664;52.514;13.440;2024-03-08T09:04:08;19.50;;;9.77;;
13197;SDS011;6664;52.514;13.440;2024-03-08T09:06:57;16.30;;;9.60;;
13197;SDS011;6664;52.514;13.440;2024-03-08T09:09:43;24.37;;;8.90;;
13197;SDS011;6664;52.514;13.440;2024-03-08T09:12:29;19.10;;;11.10;;
13197;SDS011;6664;52.514;13.440;2024-03-08T09:15:17;18.73;;;9.10;;
13197;SDS011;6664;52.514;13.440;2024-03-08T09:18:03;16.37;;;9.50;;
13197;SDS011;6664;52.514;13.440;2024-03-08T09:20:51;21.20;;;10.60;;
13197;SDS011;6664;52.514;13.440;2024-03-08T09:23:38;17.97;;;10.57;;
13197;SDS011;6664;52.514;13.440;2024-03-08T09:26:25;13.80;;;9.13;;
13197;SDS011;6664;52.514;13.440;2024-03-08T09:29:13;17.53;;;10.53;;
13197;SDS011;6664;52.514;13.440;2024-03-08T09:31:59;18.60;;;8.87;;
13197;SDS011;6664;52.514;13.440;2024-03-08T09:34:44;15.77;;;9.50;;
13197;SDS011;6664;52.514;13.440;2024-03-08T09:37:32;18.10;;;10.17;;
13197;SDS011;6664;52.514;13.440;2024-03-08T09:40:19;15.87;;;9.37;;
13197;SDS011;6664;52.514;13.440;2024-03-08T09:43:04;20.33;;;11.23;;
13197;SDS011;6664;52.514;13.440;2024-03-08T09:45:53;16.33;;;9.70;;
13197;SDS011;6664;52.514;13.440;2024-03-08T09:48:40;15.47;;;9.67;;
13197;SDS011;6664;52.514;13.440;2024-03-08T09:51:29;17.13;;;8.70;;
13197;SDS011;6664;52.514;13.440;2024-03-08T09:54:18;16.30;;;9.93;;
13197;SDS011;6664;52.514;13.440;2024-03-08T09:57:08;16.30;;;9.33;;
13197;SDS011;6664;52.514;13.440;2024-03-08T09:59:54;17.47;;;9.10;;
13197;SDS011;6664;52.514;13.440;2024-03-08T10:02:41;17.47;;;9.87;;
13197;SDS011;6664;52.514;13.440;2024-03-08T10:05:26;15.27;;;9.40;;
13197;SDS011;6664;52.514;13.440;2024-03-08T10:08:12;16.63;;;7.80;;
13197;SDS011;6664;52.514;13.440;2024-03-08T10:10:58;19.23;;;9.33;;
13197;SDS011;6664;52.514;13.440;2024-03-08T10:13:44;13.10;;;7.73;;
13197;SDS011;6664;52.514;13.440;2024-03-08T10:16:35;13.37;;;8.47;;
13197;SDS011;6664;52.514;13.440;2024-03-08T10:19:21;18.13;;;9.80;;
13197;SDS011;6664;52.514;13.440;2024-03-08T10:22:14;15.90;;;8.20;;
13197;SDS011;6664;52.514;13.440;2024-03-08T10:25:08;14.77;;;8.23;;
13197;SDS011;6664;52.514;13.440;2024-03-08T10:27:57;16.90;;;9.10;;
13197;SDS011;6664;52.514;13.440;2024-03-08T10:30:46;14.30;;;7.90;;
13197;SDS011;6664;52.514;13.440;2024-03-08T10:33:33;13.13;;;8.73;;
13197;SDS011;6664;52.514;13.440;2024-03-08T10:36:18;17.70;;;8.10;;
13197;SDS011;6664;52.514;13.440;2024-03-08T10:39:08;15.57;;;8.60;;
13197;SDS011;6664;52.514;13.440;2024-03-08T10:42:04;15.87;;;9.70;;
13197;SDS011;6664;52.514;13.440;2024-03-08T10:45:10;13.50;;;8.20;;
13197;SDS011;6664;52.514;13.440;2024-03-08T10:51:23;12.40;;;8.07;;
13197;SDS011;6664;52.514;13.440;2024-03-08T10:54:10;15.23;;;7.73;;
13197;SDS011;6664;52.514;13.440;2024-03-08T10:56:57;12.37;;;7.20;;
13197;SDS011;6664;52.514;13.440;2024-03-08T10:59:42;13.03;;;6.97;;
13197;SDS011;6664;52.514;13.440;2024-03-08T11:02:30;10.07;;;6.50;;
13197;SDS011;6664;52.514;13.440;2024-03-08T11:05:36;14.40;;;7.87;;
13197;SDS011;6664;52.514;13.440;2024-03-08T11:08:28;13.57;;;7.67;;
13197;SDS011;6664;52.514;13.440;2024-03-08T11:11:28;12.10;;;7.17;;
13197;SDS011;6664;52.514;13.440;2024-03-08T11:20:26;14.40;;;7.57;;
13197;SDS011;6664;52.514;13.440;2024-03-08T11:23:13;10.80;;;6.93;;
13197;SDS011;6664;52.514;13.440;2024-03-08T11:26:03;11.10;;;6.77;;
13197;SDS011;6664;52.514;13.440;2024-03-08T11:28:52;8.70;;;6.20;;
13197;SDS011;6664;52.514;13.440;2024-03-08T11:31:41;10.83;;;6.87;;
13197;SDS011;6664;52.514;13.440;2024-03-08T11:34:26;12.87;;;6.77;;
13197;SDS011;6664;52.514;13.440;2024-03-08T11:37:13;11.50;;;7.90;;
13197;SDS011;6664;52.514;13.440;2024-03-08T11:40:00;14.20;;;8.13;;
13197;SDS011;6664;52.514;13.440;2024-03-08T11:42:49;15.33;;;8.20;;
13197;SDS011;6664;52.514;13.440;2024-03-08T11:45:39;15.83;;;7.50;;
13197;SDS011;6664;52.514;13.440;2024-03-08T11:48:28;15.70;;;7.37;;
13197;SDS011;6664;52.514;13.440;2024-03-08T11:51:14;10.27;;;7.37;;
13197;SDS011;6664;52.514;13.440;2024-03-08T11:54:00;16.00;;;10.33;;
13197;SDS011;6664;52.514;13.440;2024-03-08T11:56:46;13.20;;;7.33;;
13197;SDS011;6664;52.514;13.440;2024-03-08T11:59:35;9.83;;;7.50;;
13197;SDS011;6664;52.514;13.440;2024-03-08T12:02:20;11.20;;;7.50;;
13197;SDS011;6664;52.514;13.440;2024-03-08T12:05:06;9.00;;;6.43;;
13197;SDS011;6664;52.514;13.440;2024-03-08T12:07:57;12.57;;;7.40;;
13197;SDS011;6664;52.514;13.440;2024-03-08T12:10:45;14.90;;;7.40;;
13197;SDS011;6664;52.514;13.440;2024-03-08T12:13:32;14.43;;;7.50;;
13197;SDS011;6664;52.514;13.440;2024-03-08T12:16:20;11.30;;;7.33;;
13197;SDS011;6664;52.514;13.440;2024-03-08T12:19:06;13.43;;;8.27;;
13197;SDS011;6664;52.514;13.440;2024-03-08T12:21:54;14.50;;;7.20;;
13197;SDS011;6664;52.514;13.440;2024-03-08T12:24:42;11.73;;;8.23;;
13197;SDS011;6664;52.514;13.440;2024-03-08T12:27:29;11.73;;;7.60;;
13197;SDS011;6664;52.514;13.440;2024-03-08T12:33:08;12.53;;;6.80;;
13197;SDS011;6664;52.514;13.440;2024-03-08T12:35:55;15.40;;;8.13;;
13197;SDS011;6664;52.514;13.440;2024-03-08T12:38:44;13.07;;;8.30;;
13197;SDS011;6664;52.514;13.440;2024-03-08T12:41:33;11.60;;;7.70;;
13197;SDS011;6664;52.514;13.440;2024-03-08T12:44:25;11.67;;;7.73;;
13197;SDS011;6664;52.514;13.440;2024-03-08T12:47:13;15.60;;;8.10;;
13197;SDS011;6664;52.514;13.440;2024-03-08T12:49:58;11.40;;;7.33;;
13197;SDS011;6664;52.514;13.440;2024-03-08T12:52:47;25.43;;;7.80;;
13197;SDS011;6664;52.514;13.440;2024-03-08T12:55:37;11.93;;;7.60;;
13197;SDS011;6664;52.514;13.440;2024-03-08T12:58:23;10.43;;;7.07;;
13197;SDS011;6664;52.514;13.440;2024-03-08T13:01:10;28.83;;;8.20;;
13197;SDS011;6664;52.514;13.440;2024-03-08T13:03:57;14.87;;;7.57;;
13197;SDS011;6664;52.514;13.440;2024-03-08T13:06:43;11.77;;;7.03;;
13197;SDS011;6664;52.514;13.440;2024-03-08T13:09:29;15.13;;;8.30;;
13197;SDS011;6664;52.514;13.440;2024-03-08T13:12:14;10.50;;;7.67;;
13197;SDS011;6664;52.514;13.440;2024-03-08T13:15:00;10.60;;;7.30;;
13197;SDS011;6664;52.514;13.440;2024-03-08T13:17:49;9.53;;;7.43;;
13197;SDS011;6664;52.514;13.440;2024-03-08T13:20:35;14.30;;;8.20;;
13197;SDS011;6664;52.514;13.440;2024-03-08T13:23:32;14.07;;;7.87;;
13197;SDS011;6664;52.514;13.440;2024-03-08T13:26:24;10.47;;;7.77;;
13197;SDS011;6664;52.514;13.440;2024-03-08T13:29:10;9.53;;;7.17;;
13197;SDS011;6664;52.514;13.440;2024-03-08T13:31:59;8.87;;;7.40;;
13197;SDS011;6664;52.514;13.440;2024-03-08T13:34:47;8.33;;;6.80;;
13197;SDS011;6664;52.514;13.440;2024-03-08T13:37:33;8.27;;;6.50;;
13197;SDS011;6664;52.514;13.440;2024-03-08T13:40:22;8.83;;;6.80;;
13197;SDS011;6664;52.514;13.440;2024-03-08T13:43:10;8.37;;;6.90;;
13197;SDS011;6664;52.514;13.440;2024-03-08T13:45:58;11.40;;;8.03;;
13197;SDS011;6664;52.514;13.440;2024-03-08T13:48:48;8.93;;;6.93;;
13197;SDS011;6664;52.514;13.440;2024-03-08T13:51:35;7.17;;;6.33;;
13197;SDS011;6664;52.514;13.440;2024-03-08T13:54:21;8.00;;;6.60;;
13197;SDS011;6664;52.514;13.440;2024-03-08T13:57:07;8.00;;;6.70;;
13197;SDS011;6664;52.514;13.440;2024-03-08T13:59:55;7.50;;;6.70;;
13197;SDS011;6664;52.514;13.440;2024-03-08T14:02:41;9.60;;;7.40;;
13197;SDS011;6664;52.514;13.440;2024-03-08T14:05:27;8.47;;;7.33;;
13197;SDS011;6664;52.514;13.440;2024-03-08T14:08:16;15.77;;;8.23;;
13197;SDS011;6664;52.514;13.440;2024-03-08T14:11:02;9.23;;;6.53;;
13197;SDS011;6664;52.514;13.440;2024-03-08T14:13:56;8.33;;;7.10;;
13197;SDS011;6664;52.514;13.440;2024-03-08T14:16:44;10.07;;;7.60;;
13197;SDS011;6664;52.514;13.440;2024-03-08T14:19:29;10.00;;;7.23;;
13197;SDS011;6664;52.514;13.440;2024-03-08T14:22:18;9.23;;;7.60;;
13197;SDS011;6664;52.514;13.440;2024-03-08T14:25:04;9.03;;;7.57;;
13197;SDS011;6664;52.514;13.440;2024-03-08T14:27:51;11.17;;;8.20;;
13197;SDS011;6664;52.514;13.440;2024-03-08T14:30:43;10.63;;;7.27;;
13197;SDS011;6664;52.514;13.440;2024-03-08T14:33:29;11.50;;;7.70;;
13197;SDS011;6664;52.514;13.440;2024-03-08T14:36:15;9.50;;;6.80;;
13197;SDS011;6664;52.514;13.440;2024-03-08T14:39:02;10.13;;;7.43;;
13197;SDS011;6664;52.514;13.440;2024-03-08T14:41:48;9.13;;;7.20;;
13197;SDS011;6664;52.514;13.440;2024-03-08T14:44:33;9.40;;;7.50;;
13197;SDS011;6664;52.514;13.440;2024-03-08T14:47:18;9.80;;;6.90;;
13197;SDS011;6664;52.514;13.440;2024-03-08T14:50:04;10.90;;;8.07;;
13197;SDS011;6664;52.514;13.440;2024-03-08T14:52:51;13.50;;;7.90;;
13197;SDS011;6664;52.514;13.440;2024-03-08T14:55:37;9.20;;;7.20;;
13197;SDS011;6664;52.514;13.440;2024-03-08T14:58:23;9.53;;;7.00;;
13197;SDS011;6664;52.514;13.440;2024-03-08T15:01:10;12.33;;;7.30;;
13197;SDS011;6664;52.514;13.440;2024-03-08T15:03:58;10.00;;;6.30;;
13197;SDS011;6664;52.514;13.440;2024-03-08T15:06:53;10.53;;;6.60;;
13197;SDS011;6664;52.514;13.440;2024-03-08T15:09:38;7.57;;;5.70;;
13197;SDS011;6664;52.514;13.440;2024-03-08T15:12:24;11.70;;;6.40;;
13197;SDS011;6664;52.514;13.440;2024-03-08T15:15:11;8.00;;;5.53;;
13197;SDS011;6664;52.514;13.440;2024-03-08T15:17:59;9.93;;;5.60;;
13197;SDS011;6664;52.514;13.440;2024-03-08T15:20:45;11.30;;;5.67;;
13197;SDS011;6664;52.514;13.440;2024-03-08T15:23:35;12.13;;;6.67;;
13197;SDS011;6664;52.514;13.440;2024-03-08T15:26:21;9.63;;;5.47;;
13197;SDS011;6664;52.514;13.440;2024-03-08T15:29:06;14.43;;;6.40;;
13197;SDS011;6664;52.514;13.440;2024-03-08T15:31:54;12.70;;;6.13;;
13197;SDS011;6664;52.514;13.440;2024-03-08T15:34:42;9.67;;;5.60;;
13197;SDS011;6664;52.514;13.440;2024-03-08T15:37:27;10.80;;;5.40;;
13197;SDS011;6664;52.514;13.440;2024-03-08T15:40:15;9.43;;;5.30;;
13197;SDS011;6664;52.514;13.440;2024-03-08T15:43:09;12.60;;;6.07;;
13197;SDS011;6664;52.514;13.440;2024-03-08T15:45:57;9.50;;;5.73;;
13197;SDS011;6664;52.514;13.440;2024-03-08T15:48:46;9.70;;;6.27;;
13197;SDS011;6664;52.514;13.440;2024-03-08T15:51:33;10.57;;;5.33;;
13197;SDS011;6664;52.514;13.440;2024-03-08T15:54:24;10.83;;;5.90;;
13197;SDS011;6664;52.514;13.440;2024-03-08T15:57:10;10.73;;;5.83;;
13197;SDS011;6664;52.514;13.440;2024-03-08T15:59:59;9.53;;;5.20;;
13197;SDS011;6664;52.514;13.440;2024-03-08T16:02:46;8.90;;;5.50;;
13197;SDS011;6664;52.514;13.440;2024-03-08T16:05:35;7.60;;;5.33;;
13197;SDS011;6664;52.514;13.440;2024-03-08T16:08:21;10.10;;;5.10;;
13197;SDS011;6664;52.514;13.440;2024-03-08T16:11:07;20.37;;;6.67;;
13197;SDS011;6664;52.514;13.440;2024-03-08T16:13:55;11.43;;;4.93;;
13197;SDS011;6664;52.514;13.440;2024-03-08T16:16:43;10.40;;;6.00;;
13197;SDS011;6664;52.514;13.440;2024-03-08T16:19:28;7.70;;;5.40;;
13197;SDS011;6664;52.514;13.440;2024-03-08T16:22:16;13.20;;;5.53;;
13197;SDS011;6664;52.514;13.440;2024-03-08T16:25:02;7.83;;;4.77;;
13197;SDS011;6664;52.514;13.440;2024-03-08T16:27:55;7.87;;;5.17;;
13197;SDS011;6664;52.514;13.440;2024-03-08T16:30:41;8.57;;;5.23;;
13197;SDS011;6664;52.514;13.440;2024-03-08T16:33:39;6.80;;;5.00;;
13197;SDS011;6664;52.514;13.440;2024-03-08T16:36:26;9.13;;;5.40;;
13197;SDS011;6664;52.514;13.440;2024-03-08T16:39:12;10.03;;;5.10;;
13197;SDS011;6664;52.514;13.440;2024-03-08T16:41:58;8.70;;;5.03;;